sensor_id;sensor_type;location;lat;lon;timestamp;pressure;altitude;pressure_sealevel;temperature;humidity
59417;BME280;45222;52.458;20.914;2023-04-08T00:01:55;101306.67;;;5.01;77.79
59417;BME280;45222;52.458;20.914;2023-04-08T00:05:40;101306.35;;;4.99;77.74
59417;BME280;45222;52.458;20.914;2023-04-08T00:09:26;101311.51;;;4.94;77.73
59417;BME280;45222;52.458;20.914;2023-04-08T00:13:11;101311.55;;;4.89;77.73
59417;BME280;45222;52.458;20.914;2023-04-08T00:16:56;101316.70;;;4.85;77.61
59417;BME280;45222;52.458;20.914;2023-04-08T00:20:42;101314.98;;;4.81;77.48
59417;BME280;45222;52.458;20.914;2023-04-08T00:24:28;101316.40;;;4.81;77.60
59417;BME280;45222;52.458;20.914;2023-04-08T00:28:13;101316.91;;;4.81;77.64
59417;BME280;45222;52.458;20.914;2023-04-08T00:31:58;101320.61;;;4.82;77.73
59417;BME280;45222;52.458;20.914;2023-04-08T00:35:43;101319.04;;;4.80;77.54
59417;BME280;45222;52.458;20.914;2023-04-08T00:39:29;101319.05;;;4.78;77.54
59417;BME280;45222;52.458;20.914;2023-04-08T00:43:14;101316.61;;;4.76;77.38
59417;BME280;45222;52.458;20.914;2023-04-08T00:47:00;101316.62;;;4.74;77.65
59417;BME280;45222;52.458;20.914;2023-04-08T00:50:45;101319.79;;;4.75;77.82
59417;BME280;45222;52.458;20.914;2023-04-08T00:54:31;101319.65;;;4.72;77.80
59417;BME280;45222;52.458;20.914;2023-04-08T00:58:16;101319.64;;;4.72;77.75
59417;BME280;45222;52.458;20.914;2023-04-08T01:02:08;101328.30;;;4.70;77.58
59417;BME280;45222;52.458;20.914;2023-04-08T01:06:02;101331.52;;;4.65;77.53
59417;BME280;45222;52.458;20.914;2023-04-08T01:09:53;101335.92;;;4.65;77.71
59417;BME280;45222;52.458;20.914;2023-04-08T01:13:40;101342.23;;;4.68;78.20
59417;BME280;45222;52.458;20.914;2023-04-08T01:17:26;101344.88;;;4.68;77.82
59417;BME280;45222;52.458;20.914;2023-04-08T01:21:12;101342.95;;;4.67;77.67
59417;BME280;45222;52.458;20.914;2023-04-08T01:25:01;101348.42;;;4.66;77.77
59417;BME280;45222;52.458;20.914;2023-04-08T01:28:50;101350.55;;;4.64;77.45
59417;BME280;45222;52.458;20.914;2023-04-08T01:32:37;101351.25;;;4.64;77.67
59417;BME280;45222;52.458;20.914;2023-04-08T01:36:24;101355.96;;;4.69;77.80
59417;BME280;45222;52.458;20.914;2023-04-08T01:40:10;101357.50;;;4.75;77.59
59417;BME280;45222;52.458;20.914;2023-04-08T01:43:56;101353.27;;;4.75;77.48
59417;BME280;45222;52.458;20.914;2023-04-08T01:47:43;101362.65;;;4.70;77.17
59417;BME280;45222;52.458;20.914;2023-04-08T01:51:30;101363.42;;;4.63;77.41
59417;BME280;45222;52.458;20.914;2023-04-08T01:55:16;101369.26;;;4.60;77.40
59417;BME280;45222;52.458;20.914;2023-04-08T01:59:04;101372.61;;;4.57;77.73
59417;BME280;45222;52.458;20.914;2023-04-08T02:02:52;101370.88;;;4.55;78.07
59417;BME280;45222;52.458;20.914;2023-04-08T02:06:38;101374.38;;;4.58;78.21
59417;BME280;45222;52.458;20.914;2023-04-08T02:10:24;101377.20;;;4.58;78.21
59417;BME280;45222;52.458;20.914;2023-04-08T02:14:09;101383.71;;;4.58;78.01
59417;BME280;45222;52.458;20.914;2023-04-08T02:17:55;101380.93;;;4.53;77.74
59417;BME280;45222;52.458;20.914;2023-04-08T02:21:43;101381.70;;;4.45;77.70
59417;BME280;45222;52.458;20.914;2023-04-08T02:25:30;101383.58;;;4.26;77.73
59417;BME280;45222;52.458;20.914;2023-04-08T02:29:18;101386.84;;;4.09;78.03
59417;BME280;45222;52.458;20.914;2023-04-08T02:33:04;101390.95;;;3.95;78.28
59417;BME280;45222;52.458;20.914;2023-04-08T02:36:50;101389.94;;;3.86;78.70
59417;BME280;45222;52.458;20.914;2023-04-08T02:40:35;101394.55;;;3.78;79.16
59417;BME280;45222;52.458;20.914;2023-04-08T02:44:20;101397.92;;;3.68;79.23
59417;BME280;45222;52.458;20.914;2023-04-08T02:48:06;101402.89;;;3.59;79.24
59417;BME280;45222;52.458;20.914;2023-04-08T02:51:51;101411.54;;;3.48;79.16
59417;BME280;45222;52.458;20.914;2023-04-08T02:55:36;101417.02;;;3.31;79.27
59417;BME280;45222;52.458;20.914;2023-04-08T02:59:22;101415.63;;;3.12;79.49
59417;BME280;45222;52.458;20.914;2023-04-08T03:03:08;101418.63;;;3.00;79.73
59417;BME280;45222;52.458;20.914;2023-04-08T03:06:53;101420.05;;;2.93;79.99
59417;BME280;45222;52.458;20.914;2023-04-08T03:10:38;101422.52;;;2.88;80.55
59417;BME280;45222;52.458;20.914;2023-04-08T03:14:23;101424.61;;;2.82;80.56
59417;BME280;45222;52.458;20.914;2023-04-08T03:18:08;101425.66;;;2.72;80.58
59417;BME280;45222;52.458;20.914;2023-04-08T03:21:53;101429.49;;;2.60;80.68
59417;BME280;45222;52.458;20.914;2023-04-08T03:25:38;101426.50;;;2.51;80.67
59417;BME280;45222;52.458;20.914;2023-04-08T03:29:23;101440.89;;;2.44;80.81
59417;BME280;45222;52.458;20.914;2023-04-08T03:33:08;101442.10;;;2.38;81.12
59417;BME280;45222;52.458;20.914;2023-04-08T03:36:53;101448.06;;;2.35;81.43
59417;BME280;45222;52.458;20.914;2023-04-08T03:40:39;101451.02;;;2.28;81.65
59417;BME280;45222;52.458;20.914;2023-04-08T03:44:24;101457.15;;;2.24;81.42
59417;BME280;45222;52.458;20.914;2023-04-08T03:48:09;101457.65;;;2.13;81.61
59417;BME280;45222;52.458;20.914;2023-04-08T03:51:54;101460.25;;;2.07;81.27
59417;BME280;45222;52.458;20.914;2023-04-08T03:55:39;101461.44;;;1.95;81.33
59417;BME280;45222;52.458;20.914;2023-04-08T03:59:24;101460.36;;;1.92;81.49
59417;BME280;45222;52.458;20.914;2023-04-08T04:03:09;101461.76;;;1.91;81.92
59417;BME280;45222;52.458;20.914;2023-04-08T04:06:56;101461.40;;;1.89;81.67
59417;BME280;45222;52.458;20.914;2023-04-08T04:10:41;101463.47;;;1.84;81.69
59417;BME280;45222;52.458;20.914;2023-04-08T04:14:26;101471.00;;;1.79;81.68
59417;BME280;45222;52.458;20.914;2023-04-08T04:18:11;101478.48;;;1.71;81.44
59417;BME280;45222;52.458;20.914;2023-04-08T04:21:56;101484.06;;;1.65;81.30
59417;BME280;45222;52.458;20.914;2023-04-08T04:25:42;101488.24;;;1.59;81.55
59417;BME280;45222;52.458;20.914;2023-04-08T04:29:27;101494.91;;;1.60;81.99
59417;BME280;45222;52.458;20.914;2023-04-08T04:33:14;101500.16;;;1.59;82.04
59417;BME280;45222;52.458;20.914;2023-04-08T04:36:59;101502.95;;;1.55;82.25
59417;BME280;45222;52.458;20.914;2023-04-08T04:40:44;101506.73;;;1.48;82.63
59417;BME280;45222;52.458;20.914;2023-04-08T04:44:30;101509.55;;;1.46;82.64
59417;BME280;45222;52.458;20.914;2023-04-08T04:48:15;101510.77;;;1.48;82.69
59417;BME280;45222;52.458;20.914;2023-04-08T04:52:00;101513.30;;;1.55;83.09
59417;BME280;45222;52.458;20.914;2023-04-08T04:55:45;101512.11;;;1.63;83.47
59417;BME280;45222;52.458;20.914;2023-04-08T04:59:30;101512.16;;;1.70;83.65
59417;BME280;45222;52.458;20.914;2023-04-08T05:03:15;101510.25;;;1.74;84.28
59417;BME280;45222;52.458;20.914;2023-04-08T05:07:00;101513.80;;;1.80;84.24
59417;BME280;45222;52.458;20.914;2023-04-08T05:10:45;101517.88;;;1.89;83.89
59417;BME280;45222;52.458;20.914;2023-04-08T05:14:30;101520.39;;;1.99;83.94
59417;BME280;45222;52.458;20.914;2023-04-08T05:18:15;101529.76;;;2.10;84.04
59417;BME280;45222;52.458;20.914;2023-04-08T05:22:00;101527.73;;;2.29;84.14
59417;BME280;45222;52.458;20.914;2023-04-08T05:25:45;101529.56;;;2.46;84.14
59417;BME280;45222;52.458;20.914;2023-04-08T05:29:30;101528.90;;;2.59;83.94
59417;BME280;45222;52.458;20.914;2023-04-08T05:33:15;101532.80;;;2.68;83.83
59417;BME280;45222;52.458;20.914;2023-04-08T05:37:00;101534.92;;;2.81;83.81
59417;BME280;45222;52.458;20.914;2023-04-08T05:40:45;101536.89;;;2.97;83.69
59417;BME280;45222;52.458;20.914;2023-04-08T05:44:31;101534.10;;;3.15;83.62
59417;BME280;45222;52.458;20.914;2023-04-08T05:48:16;101533.94;;;3.30;83.49
59417;BME280;45222;52.458;20.914;2023-04-08T05:52:01;101537.80;;;3.47;83.23
59417;BME280;45222;52.458;20.914;2023-04-08T05:55:51;101543.42;;;3.62;83.00
59417;BME280;45222;52.458;20.914;2023-04-08T05:59:35;101548.17;;;3.76;82.76
59417;BME280;45222;52.458;20.914;2023-04-08T06:03:20;101552.89;;;3.90;82.60
59417;BME280;45222;52.458;20.914;2023-04-08T06:07:06;101556.54;;;4.11;82.25
59417;BME280;45222;52.458;20.914;2023-04-08T06:10:53;101559.30;;;4.30;81.81
59417;BME280;45222;52.458;20.914;2023-04-08T06:14:38;101558.86;;;4.49;81.61
59417;BME280;45222;52.458;20.914;2023-04-08T06:18:23;101560.38;;;4.66;80.47
59417;BME280;45222;52.458;20.914;2023-04-08T06:22:08;101558.56;;;4.77;79.59
59417;BME280;45222;52.458;20.914;2023-04-08T06:25:53;101559.05;;;4.86;79.14
59417;BME280;45222;52.458;20.914;2023-04-08T06:29:38;101557.94;;;4.93;78.33
59417;BME280;45222;52.458;20.914;2023-04-08T06:33:24;101560.19;;;5.02;78.06
59417;BME280;45222;52.458;20.914;2023-04-08T06:37:12;101563.65;;;5.11;77.53
59417;BME280;45222;52.458;20.914;2023-04-08T06:41:01;101564.77;;;5.27;78.08
59417;BME280;45222;52.458;20.914;2023-04-08T06:44:47;101557.95;;;5.43;77.33
59417;BME280;45222;52.458;20.914;2023-04-08T06:48:32;101558.20;;;5.54;76.57
59417;BME280;45222;52.458;20.914;2023-04-08T06:52:17;101562.69;;;5.68;76.92
59417;BME280;45222;52.458;20.914;2023-04-08T06:56:03;101568.76;;;5.80;75.70
59417;BME280;45222;52.458;20.914;2023-04-08T06:59:48;101567.78;;;5.89;76.08
59417;BME280;45222;52.458;20.914;2023-04-08T07:03:33;101568.74;;;5.99;75.28
59417;BME280;45222;52.458;20.914;2023-04-08T07:07:18;101570.55;;;6.15;75.19
59417;BME280;45222;52.458;20.914;2023-04-08T07:11:03;101570.41;;;6.26;74.38
59417;BME280;45222;52.458;20.914;2023-04-08T07:14:48;101567.10;;;6.38;74.54
59417;BME280;45222;52.458;20.914;2023-04-08T07:18:33;101570.64;;;6.53;73.70
59417;BME280;45222;52.458;20.914;2023-04-08T07:22:19;101571.60;;;6.61;72.64
59417;BME280;45222;52.458;20.914;2023-04-08T07:26:05;101570.13;;;6.66;73.02
59417;BME280;45222;52.458;20.914;2023-04-08T07:29:53;101573.70;;;6.76;72.72
59417;BME280;45222;52.458;20.914;2023-04-08T07:33:40;101575.45;;;6.89;72.85
59417;BME280;45222;52.458;20.914;2023-04-08T07:37:25;101577.90;;;7.05;71.88
59417;BME280;45222;52.458;20.914;2023-04-08T07:41:10;101578.52;;;7.22;72.38
59417;BME280;45222;52.458;20.914;2023-04-08T07:44:55;101583.76;;;7.39;71.90
59417;BME280;45222;52.458;20.914;2023-04-08T07:48:40;101584.82;;;7.50;69.93
59417;BME280;45222;52.458;20.914;2023-04-08T07:52:25;101582.89;;;7.60;69.90
59417;BME280;45222;52.458;20.914;2023-04-08T07:56:12;101582.34;;;7.72;70.51
59417;BME280;45222;52.458;20.914;2023-04-08T07:59:57;101583.39;;;7.83;70.00
59417;BME280;45222;52.458;20.914;2023-04-08T08:03:42;101584.13;;;7.91;69.68
59417;BME280;45222;52.458;20.914;2023-04-08T08:07:28;101590.12;;;8.03;69.10
59417;BME280;45222;52.458;20.914;2023-04-08T08:11:13;101587.86;;;8.10;68.32
59417;BME280;45222;52.458;20.914;2023-04-08T08:14:58;101582.88;;;8.20;67.79
59417;BME280;45222;52.458;20.914;2023-04-08T08:18:44;101584.23;;;8.23;66.32
59417;BME280;45222;52.458;20.914;2023-04-08T08:22:29;101580.97;;;8.27;67.12
59417;BME280;45222;52.458;20.914;2023-04-08T08:26:14;101580.67;;;8.43;67.96
59417;BME280;45222;52.458;20.914;2023-04-08T08:29:59;101580.36;;;8.68;68.20
59417;BME280;45222;52.458;20.914;2023-04-08T08:33:44;101579.41;;;8.88;67.94
59417;BME280;45222;52.458;20.914;2023-04-08T08:37:29;101572.63;;;9.05;66.82
59417;BME280;45222;52.458;20.914;2023-04-08T08:41:14;101568.05;;;9.19;66.91
59417;BME280;45222;52.458;20.914;2023-04-08T08:45:01;101574.56;;;9.29;66.88
59417;BME280;45222;52.458;20.914;2023-04-08T08:48:47;101570.39;;;9.41;66.40
59417;BME280;45222;52.458;20.914;2023-04-08T08:52:32;101561.69;;;9.48;65.98
59417;BME280;45222;52.458;20.914;2023-04-08T08:56:17;101563.24;;;9.63;65.92
59417;BME280;45222;52.458;20.914;2023-04-08T09:00:02;101564.58;;;9.67;64.31
59417;BME280;45222;52.458;20.914;2023-04-08T09:04:06;101566.39;;;9.73;64.62
59417;BME280;45222;52.458;20.914;2023-04-08T09:07:52;101569.60;;;9.86;64.12
59417;BME280;45222;52.458;20.914;2023-04-08T09:11:38;101568.79;;;9.97;63.15
59417;BME280;45222;52.458;20.914;2023-04-08T09:15:24;101567.41;;;10.08;63.92
59417;BME280;45222;52.458;20.914;2023-04-08T09:19:10;101573.48;;;10.27;62.97
59417;BME280;45222;52.458;20.914;2023-04-08T09:22:56;101572.45;;;10.37;61.68
59417;BME280;45222;52.458;20.914;2023-04-08T09:26:45;101576.42;;;10.43;62.20
59417;BME280;45222;52.458;20.914;2023-04-08T09:30:32;101574.73;;;10.53;61.29
59417;BME280;45222;52.458;20.914;2023-04-08T09:34:17;101574.67;;;10.67;61.93
59417;BME280;45222;52.458;20.914;2023-04-08T09:38:04;101576.11;;;10.84;60.95
59417;BME280;45222;52.458;20.914;2023-04-08T09:41:50;101571.37;;;11.00;61.25
59417;BME280;45222;52.458;20.914;2023-04-08T09:45:36;101572.08;;;11.11;59.74
59417;BME280;45222;52.458;20.914;2023-04-08T09:49:26;101568.46;;;11.19;59.53
59417;BME280;45222;52.458;20.914;2023-04-08T09:53:16;101570.65;;;11.34;59.97
59417;BME280;45222;52.458;20.914;2023-04-08T09:57:08;101569.38;;;11.46;59.13
59417;BME280;45222;52.458;20.914;2023-04-08T10:00:54;101566.98;;;11.59;58.71
59417;BME280;45222;52.458;20.914;2023-04-08T10:04:41;101568.20;;;11.81;59.27
59417;BME280;45222;52.458;20.914;2023-04-08T10:08:27;101570.31;;;11.97;58.32
59417;BME280;45222;52.458;20.914;2023-04-08T10:12:14;101562.55;;;12.16;58.89
59417;BME280;45222;52.458;20.914;2023-04-08T10:16:18;101559.89;;;12.35;58.91
59417;BME280;45222;52.458;20.914;2023-04-08T10:20:05;101559.12;;;12.61;58.54
59417;BME280;45222;52.458;20.914;2023-04-08T10:24:11;101558.90;;;12.76;57.93
59417;BME280;45222;52.458;20.914;2023-04-08T10:27:56;101559.42;;;12.90;56.46
59417;BME280;45222;52.458;20.914;2023-04-08T10:31:41;101551.51;;;13.01;55.70
59417;BME280;45222;52.458;20.914;2023-04-08T10:35:29;101552.09;;;13.13;55.62
59417;BME280;45222;52.458;20.914;2023-04-08T10:39:15;101549.69;;;13.01;54.18
59417;BME280;45222;52.458;20.914;2023-04-08T10:43:00;101555.46;;;13.00;54.74
59417;BME280;45222;52.458;20.914;2023-04-08T10:46:46;101551.19;;;13.05;55.61
59417;BME280;45222;52.458;20.914;2023-04-08T10:50:31;101548.31;;;13.23;54.90
59417;BME280;45222;52.458;20.914;2023-04-08T10:54:17;101548.02;;;13.34;53.99
59417;BME280;45222;52.458;20.914;2023-04-08T10:58:06;101548.02;;;13.30;53.37
59417;BME280;45222;52.458;20.914;2023-04-08T11:01:52;101544.70;;;13.41;53.43
59417;BME280;45222;52.458;20.914;2023-04-08T11:05:38;101541.08;;;13.38;50.97
59417;BME280;45222;52.458;20.914;2023-04-08T11:09:23;101540.53;;;13.38;52.17
59417;BME280;45222;52.458;20.914;2023-04-08T11:13:08;101541.95;;;13.52;52.34
59417;BME280;45222;52.458;20.914;2023-04-08T11:16:54;101538.57;;;13.69;49.89
59417;BME280;45222;52.458;20.914;2023-04-08T11:20:39;101533.55;;;13.69;49.55
59417;BME280;45222;52.458;20.914;2023-04-08T11:24:24;101535.71;;;13.65;50.10
59417;BME280;45222;52.458;20.914;2023-04-08T11:28:10;101530.59;;;13.84;51.83
59417;BME280;45222;52.458;20.914;2023-04-08T11:31:56;101525.82;;;14.11;51.77
59417;BME280;45222;52.458;20.914;2023-04-08T11:35:42;101524.98;;;14.37;50.13
59417;BME280;45222;52.458;20.914;2023-04-08T11:39:28;101525.17;;;14.49;48.03
59417;BME280;45222;52.458;20.914;2023-04-08T11:43:13;101523.55;;;14.57;47.85
59417;BME280;45222;52.458;20.914;2023-04-08T11:46:59;101517.40;;;14.70;47.98
59417;BME280;45222;52.458;20.914;2023-04-08T11:50:45;101514.85;;;14.75;47.50
59417;BME280;45222;52.458;20.914;2023-04-08T11:54:31;101514.73;;;14.70;46.12
59417;BME280;45222;52.458;20.914;2023-04-08T11:58:16;101511.79;;;14.67;47.29
59417;BME280;45222;52.458;20.914;2023-04-08T12:02:02;101503.67;;;14.92;49.04
59417;BME280;45222;52.458;20.914;2023-04-08T12:05:47;101505.00;;;15.16;47.79
59417;BME280;45222;52.458;20.914;2023-04-08T12:09:32;101508.35;;;15.21;45.07
59417;BME280;45222;52.458;20.914;2023-04-08T12:13:18;101500.18;;;15.16;45.67
59417;BME280;45222;52.458;20.914;2023-04-08T12:17:03;101495.73;;;15.33;46.98
59417;BME280;45222;52.458;20.914;2023-04-08T12:20:48;101499.23;;;15.56;46.61
59417;BME280;45222;52.458;20.914;2023-04-08T12:24:33;101492.44;;;15.62;44.55
59417;BME280;45222;52.458;20.914;2023-04-08T12:28:18;101487.80;;;15.44;43.72
59417;BME280;45222;52.458;20.914;2023-04-08T12:32:03;101488.30;;;15.31;44.30
59417;BME280;45222;52.458;20.914;2023-04-08T12:35:49;101480.48;;;15.15;45.07
59417;BME280;45222;52.458;20.914;2023-04-08T12:39:35;101478.17;;;15.18;46.56
59417;BME280;45222;52.458;20.914;2023-04-08T12:43:21;101480.02;;;15.50;45.14
59417;BME280;45222;52.458;20.914;2023-04-08T12:47:07;101476.49;;;15.79;44.82
59417;BME280;45222;52.458;20.914;2023-04-08T12:50:52;101473.65;;;16.03;44.45
59417;BME280;45222;52.458;20.914;2023-04-08T12:54:38;101472.80;;;16.09;44.90
59417;BME280;45222;52.458;20.914;2023-04-08T12:58:23;101472.78;;;16.30;44.61
59417;BME280;45222;52.458;20.914;2023-04-08T13:02:09;101468.90;;;16.22;44.15
59417;BME280;45222;52.458;20.914;2023-04-08T13:05:57;101463.70;;;16.12;44.76
59417;BME280;45222;52.458;20.914;2023-04-08T13:09:42;101464.58;;;16.15;44.69
59417;BME280;45222;52.458;20.914;2023-04-08T13:13:27;101463.00;;;16.01;44.54
59417;BME280;45222;52.458;20.914;2023-04-08T13:17:13;101463.58;;;15.86;45.00
59417;BME280;45222;52.458;20.914;2023-04-08T13:20:59;101459.86;;;15.48;44.31
59417;BME280;45222;52.458;20.914;2023-04-08T13:24:44;101458.12;;;15.39;45.13
59417;BME280;45222;52.458;20.914;2023-04-08T13:28:30;101449.36;;;15.39;45.44
59417;BME280;45222;52.458;20.914;2023-04-08T13:32:15;101448.23;;;15.40;44.86
59417;BME280;45222;52.458;20.914;2023-04-08T13:36:00;101446.80;;;15.29;44.36
59417;BME280;45222;52.458;20.914;2023-04-08T13:39:45;101438.67;;;15.06;44.65
59417;BME280;45222;52.458;20.914;2023-04-08T13:43:30;101436.86;;;14.77;44.89
59417;BME280;45222;52.458;20.914;2023-04-08T13:47:15;101444.40;;;14.69;45.58
59417;BME280;45222;52.458;20.914;2023-04-08T13:51:00;101444.35;;;14.51;45.35
59417;BME280;45222;52.458;20.914;2023-04-08T13:54:45;101440.77;;;14.32;45.06
59417;BME280;45222;52.458;20.914;2023-04-08T13:58:30;101439.67;;;14.05;44.30
59417;BME280;45222;52.458;20.914;2023-04-08T14:02:16;101437.20;;;13.93;44.67
59417;BME280;45222;52.458;20.914;2023-04-08T14:06:01;101434.04;;;13.88;45.50
59417;BME280;45222;52.458;20.914;2023-04-08T14:09:46;101427.39;;;13.89;45.31
59417;BME280;45222;52.458;20.914;2023-04-08T14:13:31;101427.20;;;13.81;45.30
59417;BME280;45222;52.458;20.914;2023-04-08T14:17:16;101426.27;;;13.78;45.66
59417;BME280;45222;52.458;20.914;2023-04-08T14:21:01;101425.52;;;13.75;45.72
59417;BME280;45222;52.458;20.914;2023-04-08T14:24:47;101424.84;;;13.62;46.21
59417;BME280;45222;52.458;20.914;2023-04-08T14:28:32;101419.98;;;13.54;45.66
59417;BME280;45222;52.458;20.914;2023-04-08T14:32:17;101419.48;;;13.45;46.19
59417;BME280;45222;52.458;20.914;2023-04-08T14:36:03;101414.36;;;13.31;46.64
59417;BME280;45222;52.458;20.914;2023-04-08T14:39:48;101415.62;;;13.18;47.75
59417;BME280;45222;52.458;20.914;2023-04-08T14:43:33;101417.41;;;13.09;48.59
59417;BME280;45222;52.458;20.914;2023-04-08T14:47:18;101415.95;;;13.02;48.38
59417;BME280;45222;52.458;20.914;2023-04-08T14:51:04;101414.48;;;13.02;48.19
59417;BME280;45222;52.458;20.914;2023-04-08T14:54:49;101417.45;;;13.08;46.47
59417;BME280;45222;52.458;20.914;2023-04-08T14:58:35;101413.38;;;13.08;45.51
59417;BME280;45222;52.458;20.914;2023-04-08T15:02:20;101414.01;;;13.06;45.71
59417;BME280;45222;52.458;20.914;2023-04-08T15:06:06;101416.89;;;13.00;44.24
59417;BME280;45222;52.458;20.914;2023-04-08T15:09:51;101415.45;;;12.96;44.45
59417;BME280;45222;52.458;20.914;2023-04-08T15:13:37;101422.88;;;12.94;43.52
59417;BME280;45222;52.458;20.914;2023-04-08T15:17:22;101422.73;;;12.97;44.41
59417;BME280;45222;52.458;20.914;2023-04-08T15:21:09;101418.03;;;13.03;44.74
59417;BME280;45222;52.458;20.914;2023-04-08T15:24:54;101418.70;;;13.04;44.60
59417;BME280;45222;52.458;20.914;2023-04-08T15:28:39;101420.59;;;13.02;45.42
59417;BME280;45222;52.458;20.914;2023-04-08T15:32:25;101423.38;;;12.99;45.42
59417;BME280;45222;52.458;20.914;2023-04-08T15:36:10;101421.64;;;12.93;45.22
59417;BME280;45222;52.458;20.914;2023-04-08T15:40:02;101430.38;;;12.80;45.29
59417;BME280;45222;52.458;20.914;2023-04-08T15:43:48;101428.20;;;12.68;45.53
59417;BME280;45222;52.458;20.914;2023-04-08T15:47:33;101434.55;;;12.57;46.01
59417;BME280;45222;52.458;20.914;2023-04-08T15:51:18;101429.55;;;12.47;46.80
59417;BME280;45222;52.458;20.914;2023-04-08T15:55:05;101430.45;;;12.38;47.04
59417;BME280;45222;52.458;20.914;2023-04-08T15:58:51;101431.98;;;12.31;47.33
59417;BME280;45222;52.458;20.914;2023-04-08T16:02:36;101428.64;;;12.25;47.88
59417;BME280;45222;52.458;20.914;2023-04-08T16:06:22;101430.45;;;12.20;47.98
59417;BME280;45222;52.458;20.914;2023-04-08T16:10:08;101428.20;;;12.13;48.12
59417;BME280;45222;52.458;20.914;2023-04-08T16:13:53;101433.27;;;12.07;48.09
59417;BME280;45222;52.458;20.914;2023-04-08T16:17:38;101436.85;;;12.00;48.74
59417;BME280;45222;52.458;20.914;2023-04-08T16:21:24;101438.88;;;11.94;49.19
59417;BME280;45222;52.458;20.914;2023-04-08T16:25:09;101438.63;;;11.86;49.27
59417;BME280;45222;52.458;20.914;2023-04-08T16:28:54;101439.33;;;11.82;49.34
59417;BME280;45222;52.458;20.914;2023-04-08T16:32:39;101440.39;;;11.77;50.00
59417;BME280;45222;52.458;20.914;2023-04-08T16:36:25;101442.09;;;11.74;50.42
59417;BME280;45222;52.458;20.914;2023-04-08T16:40:11;101444.52;;;11.71;50.83
59417;BME280;45222;52.458;20.914;2023-04-08T16:43:56;101447.37;;;11.66;50.99
59417;BME280;45222;52.458;20.914;2023-04-08T16:47:42;101448.99;;;11.60;52.06
59417;BME280;45222;52.458;20.914;2023-04-08T16:51:27;101449.92;;;11.54;52.60
59417;BME280;45222;52.458;20.914;2023-04-08T16:55:13;101453.70;;;11.48;53.26
59417;BME280;45222;52.458;20.914;2023-04-08T16:58:58;101453.77;;;11.41;53.96
59417;BME280;45222;52.458;20.914;2023-04-08T17:02:43;101457.81;;;11.32;54.07
59417;BME280;45222;52.458;20.914;2023-04-08T17:06:28;101459.49;;;11.24;54.33
59417;BME280;45222;52.458;20.914;2023-04-08T17:10:14;101456.20;;;11.16;54.41
59417;BME280;45222;52.458;20.914;2023-04-08T17:13:59;101461.83;;;11.08;54.29
59417;BME280;45222;52.458;20.914;2023-04-08T17:17:45;101464.61;;;10.98;54.74
59417;BME280;45222;52.458;20.914;2023-04-08T17:21:31;101470.40;;;10.91;54.82
59417;BME280;45222;52.458;20.914;2023-04-08T17:25:16;101481.46;;;10.84;56.14
59417;BME280;45222;52.458;20.914;2023-04-08T17:29:02;101480.82;;;10.76;56.74
59417;BME280;45222;52.458;20.914;2023-04-08T17:32:47;101483.96;;;10.66;57.02
59417;BME280;45222;52.458;20.914;2023-04-08T17:36:33;101488.64;;;10.59;57.34
59417;BME280;45222;52.458;20.914;2023-04-08T17:40:18;101494.92;;;10.51;58.21
59417;BME280;45222;52.458;20.914;2023-04-08T17:44:03;101500.88;;;10.41;58.62
59417;BME280;45222;52.458;20.914;2023-04-08T17:47:49;101508.09;;;10.32;58.76
59417;BME280;45222;52.458;20.914;2023-04-08T17:51:35;101512.23;;;10.24;58.77
59417;BME280;45222;52.458;20.914;2023-04-08T17:55:20;101520.23;;;10.17;59.24
59417;BME280;45222;52.458;20.914;2023-04-08T17:59:05;101522.39;;;10.10;59.62
59417;BME280;45222;52.458;20.914;2023-04-08T18:02:50;101526.88;;;10.02;60.22
59417;BME280;45222;52.458;20.914;2023-04-08T18:06:36;101529.77;;;9.94;60.62
59417;BME280;45222;52.458;20.914;2023-04-08T18:10:21;101536.42;;;9.84;62.39
59417;BME280;45222;52.458;20.914;2023-04-08T18:14:08;101544.59;;;9.71;63.27
59417;BME280;45222;52.458;20.914;2023-04-08T18:17:53;101550.38;;;9.60;65.08
59417;BME280;45222;52.458;20.914;2023-04-08T18:21:39;101552.17;;;9.52;65.64
59417;BME280;45222;52.458;20.914;2023-04-08T18:25:24;101556.50;;;9.42;67.75
59417;BME280;45222;52.458;20.914;2023-04-08T18:29:09;101558.61;;;9.28;69.18
59417;BME280;45222;52.458;20.914;2023-04-08T18:32:55;101561.37;;;9.16;69.16
59417;BME280;45222;52.458;20.914;2023-04-08T18:36:40;101559.14;;;9.05;70.25
59417;BME280;45222;52.458;20.914;2023-04-08T18:40:26;101558.52;;;8.94;70.49
59417;BME280;45222;52.458;20.914;2023-04-08T18:44:11;101565.20;;;8.89;70.95
59417;BME280;45222;52.458;20.914;2023-04-08T18:47:56;101565.84;;;8.83;71.66
59417;BME280;45222;52.458;20.914;2023-04-08T18:51:41;101570.81;;;8.75;72.96
59417;BME280;45222;52.458;20.914;2023-04-08T18:55:28;101563.69;;;8.68;73.77
59417;BME280;45222;52.458;20.914;2023-04-08T18:59:13;101560.67;;;8.60;73.40
59417;BME280;45222;52.458;20.914;2023-04-08T19:02:59;101555.98;;;8.55;74.36
59417;BME280;45222;52.458;20.914;2023-04-08T19:06:47;101554.95;;;8.54;75.39
59417;BME280;45222;52.458;20.914;2023-04-08T19:10:33;101553.73;;;8.52;75.89
59417;BME280;45222;52.458;20.914;2023-04-08T19:14:18;101550.96;;;8.48;76.36
59417;BME280;45222;52.458;20.914;2023-04-08T19:18:04;101552.97;;;8.45;76.78
59417;BME280;45222;52.458;20.914;2023-04-08T19:21:49;101548.63;;;8.41;77.04
59417;BME280;45222;52.458;20.914;2023-04-08T19:25:35;101550.15;;;8.36;77.02
59417;BME280;45222;52.458;20.914;2023-04-08T19:29:20;101548.54;;;8.37;77.32
59417;BME280;45222;52.458;20.914;2023-04-08T19:33:07;101548.08;;;8.41;77.64